Yakima Air Terminal McAllister Field
KYKM : rendu visible

Aérodrome :











RETROUVEZ-NOUS SUR...

 
LOGIN :

S'inscrire | Disclaimer

   EN    FR    IT 

 









Légende :    VFR   VFR Marginal   IFR   IFR Intensif   IFR Très Intensif
Visi : 
Plafond : 
>= 8 km
>= 3000ft
5 à 8 km
1000 à 3000 ft
1500m à 5 km
500 à 1000 ft
800 à 1500m
200 à 500 ft
< 800m
< 200 ft
Symboles :   Orages  Brouillard  Fortes neiges  Fortes précipitations  Vent > 20 kt






- Altitude de l'aérodrome : 1099 ft
- Code IATA : YKM


KYKM - Yakima Air Terminal McAllister Field

DERNIER METAR :
  • 251753Z 00000KT 10SM OVC080 17/11 A3002 RMK AO2 RAB09E46 SLP163 P0000 60000 T01720106 10178 20111 58002

METARs EXPIRÉS :
  • 251653Z 00000KT 10SM OVC090 17/10 A3003 RMK AO2 RAB00E09 SLP165 P0000 T01670100
  • 251553Z 25003KT 10SM BKN090 OVC110 16/11 A3003 RMK AO2 RAE47 SLP167 P0000 T01560106

TAF KYKM
Valide du 25 à 18h jusqu'au 26 à 18h UTC


251736Z 2518/2618 VRB06KT P6SM VCSH SCT060 BKN080 OVC100
FM260000 27009KT P6SM SCT070 BKN100
FM260600 28006KT P6SM FEW070 SCT250
FM261730 30008KT P6SM BKN250
FIR KZSE / Amérique du Nord



MET'MAP, la Météo Aéronautique d'un coup d'oeil ! - Copyright ORBIFLY Décembre 2007 - Disclaimer

ORBIFLY MET'MAP TEAM :

Programmation & Développement : Alexandra Zaïnal
Sur une idée originale de : Baudouin d'Aumeries
Assistance à la programmation : Marc-Olivier Méhu
Soutien technique & logistique : Manuel Goepfert

Contact : metmap@orbifly.com




SOURCES & CREDITS :

   NOAA       Earth
Advisory